Daniel Soto

Baş Scout - Villarreal
5 Ara 2027
Pazar
İşlem

Kişilik

Uyum (13) Hırs (13) Tartışma (1) Sadakat (16) Baskı (7) Profesyonellik (2) Sportmenlik (19) Mizaç (2)

Profil

Antrenörlük Tarzı Demokratik
Lisans Kıtasal C
Kararlılık 11
İnsan Yönetimi 14
Motivasyon 7
Disiplin 15
İş Memnuniyeti
100%
Yorgunluk
0%
Görev Baş Scout
Maaş 57.9K h/h
Sözleşme 14.03.2028

Performans

Davranış İyi
Antrenman Etkinliği
61%
Oyuncu Gelişimi
40%
Sakatlık Önleme
65%
Taktik Uygulama
45%

Son Olaylar

Oyuncu izleme toplantısına katıldı şimdi
Bir transfer hedefi önerdi şimdi
Oyuncu izleme toplantısına katıldı şimdi
Oyuncu izleme toplantısına katıldı şimdi
Bir transfer hedefi önerdi şimdi
Bir oyuncu değerlendirdi şimdi
Bir maç izledi şimdi
Bir maç izledi şimdi

Şu Anda İzliyor

284
Oyuncu Kulüp Durum Yetenek Güven İzlendi Son Gözlem Son Oy
Giovanni Baroni Talleres Aktif 111 / 121 40% 11 04.12.2027 -
Dilan Godoy Vélez Aktif 115 / 116 40% 2 04.12.2027 -
Valentino Acuña Newell's Old Boys Aktif 111 / 116 40% 8 04.12.2027 -
Antoñito Cordero Newcastle United Aktif 123 / 130 40% 8 30.11.2027 -
Mikkel Hope Haugesund Aktif 103 / 105 40% 1 30.11.2027 -
Alex Verón Vélez Aktif 113 / 122 40% 17 29.11.2027 -
Luis Otávio FC Dallas Aktif 115 / 116 40% 7 29.11.2027 -
Oskar Spiten-Nysæter Molde Aktif 125 / 122 40% 3 27.11.2027 -
Tomás Aranda Boca Juniors Aktif 111 / 121 40% 2 26.11.2027 -
Matías Arias Vélez Aktif 115 / 119 40% 8 26.11.2027 -
Eli Junior Kroupi Swansea City Aktif 143 / 151 40% 1 26.11.2027 -
Matías Acevedo Racing Club Aktif 110 / 117 40% 7 25.11.2027 -
Jan Virgili Club Brugge Aktif 131 / 136 40% 7 25.11.2027 -
Fabricio Pérez Estudiantes Aktif 120 / 123 40% 1 25.11.2027 -
Myles Lewis-Skelly Leyton Orient Aktif 151 / 161 40% 1 23.11.2027 -
Yael Padilla Tijuana Aktif 116 / 115 40% 1 23.11.2027 -
David Martínez Orlando City Aktif 131 / 120 40% 4 22.11.2027 -
Izan Merino Málaga Aktif 133 / 136 40% 1 22.11.2027 -
Yang Min-Hyeok Stevenage Aktif 130 / 136 40% 3 21.11.2027 -
Tahiel Peralta Huracán Aktif 110 / 120 40% 4 21.11.2027 -
Facundo Jainikoski Argentinos Juniors Aktif 115 / 125 40% 1 21.11.2027 -
Mateo Peralta Danubio Aktif 109 / 119 40% 11 19.11.2027 -
Amaury Morales Pumas UNAM Aktif 124 / 123 40% 2 19.11.2027 -
Estêvão Exeter City Aktif 144 / 155 40% 2 18.11.2027 -
Tiago Pucciarelli All Boys Aktif 97 / 102 40% 1 18.11.2027 -
Felipe Obradovich Lanús Aktif 111 / 114 40% 6 17.11.2027 -
Bazoumana Touré Ipswich Town Aktif 147 / 148 40% 2 15.11.2027 -
Héctor Preciado Envigado Aktif 94 / 97 40% 1 15.11.2027 -
Jesús Rodríguez Como Aktif 153 / 150 40% 6 14.11.2027 -
Bautista Carboni Defensores Unidos Aktif 104 / 109 40% 14 13.11.2027 -
Axel Tape Bayer Leverkusen Aktif 131 / 135 40% 1 13.11.2027 -
Roger Fernandes Al-Ittihad Aktif 141 / 145 40% 3 11.11.2027 -
Aarón Martín Al-Qadisiyah Aktif 114 / 115 40% 3 11.11.2027 -
Agustín Obregón River Plate Aktif 115 / 119 40% 2 07.11.2027 -
Thiago Taborda AlbinoLeffe Aktif 96 / 100 40% 1 05.11.2027 -
Adrian Skogmar Malmo FF Aktif 118 / 124 40% 2 31.10.2027 -
Christ Wawa Helsingborg Aktif 101 / 101 40% 1 29.10.2027 -
Nicolás Barros Schelotto Gimnasia La Plata Aktif 116 / 126 40% 7 28.10.2027 -
Nazareno Petrecca Nueva Chicago Aktif 94 / 99 40% 1 28.10.2027 -
Franco Minerva Platense Aktif 113 / 121 40% 5 27.10.2027 -
Santiago Segovia Rosario Central Aktif 108 / 119 40% 3 22.10.2027 -
Juan Morán Godoy Cruz Aktif 111 / 113 40% 1 22.10.2027 -
Axel Montaña Danubio Aktif 102 / 109 40% 3 20.10.2027 -
Joel Orlando Kasimpasa Aktif 113 / 125 40% 2 20.10.2027 -
Emiliano Zambrano Gimnasia y Esgrima Aktif 92 / 97 40% 1 18.10.2027 -
Luca Regiardo Newell's Old Boys Aktif 101 / 109 40% 3 15.10.2027 -
Mateo Rodríguez Estudiantes Aktif 94 / 91 40% 1 15.10.2027 -
Sunday Aniebet Enyimba Aktif 88 / 98 40% 1 13.10.2027 -
Tiziano Noriega Tristán Suárez Aktif 93 / 101 40% 1 12.10.2027 -
Ruben Ramos LA Galaxy Aktif 96 / 106 40% 1 11.10.2027 -
Alejo Fernández Temperley Aktif 94 / 104 40% 1 11.10.2027 -
Santiago López Independiente Aktif 125 / 122 40% 2 08.10.2027 -
Matías Gómez Talleres Aktif 113 / 123 40% 1 08.10.2027 -
Gustavo Lozano Deportivo Tachira Aktif 94 / 96 40% 1 05.10.2027 -
Bryan Caicedo Leones Aktif 96 / 103 40% 1 28.09.2027 -
Wisdom Udom Bendel Insurance Aktif 88 / 91 40% 1 27.09.2027 -
Mauro Carrizo Atlético Tucumán Aktif 103 / 112 40% 2 24.09.2027 -
Mateo Martínez Liverpool Montevideo Aktif 94 / 98 40% 1 24.09.2027 -
Teo Rodríguez Pagano San Lorenzo Aktif 113 / 120 40% 5 23.09.2027 -
Gideon Manaseh Ikorodu City Aktif 87 / 97 40% 1 23.09.2027 -
Alexis Rodríguez Metropolitanos Aktif 96 / 96 40% 1 23.09.2027 -
Valentín Lucero San Marcos de Arica Aktif 87 / 97 40% 1 20.09.2027 -
Noah Streit CF Montreal Aktif 119 / 122 40% 3 19.09.2027 -
Jhon Renteria Sarmiento Aktif 108 / 121 40% 2 14.09.2027 -
Lucas Duré Montevideo City Torque Aktif 95 / 109 40% 1 13.09.2027 -
Esteban de Lima Tacuarembo Aktif 92 / 101 40% 1 13.09.2027 -
Juan Rodríguez Wanderers Aktif 98 / 103 40% 1 12.09.2027 -
Richardson Rivas Atletico Nacional Aktif 111 / 122 40% 6 09.09.2027 -
Ihojan Pérez Cerro Largo Aktif 97 / 101 40% 1 07.09.2027 -
Yury Oyarzo Racing Aktif 93 / 103 40% 1 07.09.2027 -
Diego Cheuquepal Racing Aktif 99 / 105 40% 1 07.09.2027 -
Juan Román Gimenez Estudiantes Aktif 95 / 97 40% 1 06.09.2027 -
Nicolás Borsotti Defensores Aktif 100 / 99 40% 1 03.09.2027 -
Musa Malik Ikorodu City Aktif 95 / 93 40% 1 03.09.2027 -
Matías Argüello Libertad Aktif 103 / 107 40% 1 31.08.2027 -
Sadiq Auwal Niger Tornadoes Aktif 88 / 95 40% 1 31.08.2027 -
Alejandro Leiva Patronato Aktif 95 / 102 40% 2 30.08.2027 -
Javier Mena Deportivo Pereira Aktif 102 / 108 40% 1 30.08.2027 -
Victor Ehibe Ashanti Gold Aktif 91 / 99 40% 1 29.08.2027 -
Abubakar Garba Nasarawa United Aktif 99 / 95 40% 1 28.08.2027 -
Exequiel Mereles Nacional Aktif 109 / 113 40% 1 27.08.2027 -
Joel Ezra Enyimba Aktif 93 / 102 40% 1 25.08.2027 -
Luka Andrade Montevideo City Torque Aktif 103 / 111 40% 1 25.08.2027 -
Sebastián Arancibia O'Higgins Aktif 103 / 105 40% 2 23.08.2027 -
Lennart Karl VfL Wolfsburg Aktif 136 / 142 40% 3 23.08.2027 -
Youssoupha Sanyang Universidad de Concepcion Aktif 104 / 108 40% 1 22.08.2027 -
Jayden Addai Como Aktif 139 / 143 40% 2 20.08.2027 -
Iván Barbona Colón Aktif 96 / 104 40% 1 20.08.2027 -
Assane Diao Fiorentina Aktif 154 / 152 40% 5 19.08.2027 -
Bautista Pereira Danubio Aktif 100 / 99 40% 1 17.08.2027 -
Maren Kefas Plateau United Aktif 87 / 98 40% 1 17.08.2027 -
Pablo Suárez Rentistas Aktif 96 / 101 40% 1 17.08.2027 -
Dylan Cabral Arsenal Aktif 96 / 106 40% 2 16.08.2027 -
Sebastián Ramírez America de Cali Aktif 104 / 111 40% 1 15.08.2027 -
Pablo García Racing Santander Aktif 136 / 131 40% 1 15.08.2027 -
Dylan Salvo Defensores Unidos Aktif 99 / 100 40% 1 15.08.2027 -
Diogo Guzmán Deportivo La Coruña Aktif 115 / 121 40% 2 13.08.2027 -
Buba Sangaré Gijón Aktif 128 / 133 40% 1 13.08.2027 -
Lisandro Piñero Celta Aktif 123 / 125 40% 1 13.08.2027 -
Alphadjo Cissé Palermo Aktif 131 / 135 40% 1 12.08.2027 -
Christ Inao Oulaï Fiorentina Aktif 139 / 140 40% 1 11.08.2027 -
Ignacio Fernández Boston River Aktif 88 / 103 40% 1 11.08.2027 -
Mattia Rutigliano Pro Vercelli Aktif 103 / 106 40% 1 10.08.2027 -
Jan Salas Huesca Aktif 112 / 112 40% 1 10.08.2027 -
Dani Ángel Peterborough United Aktif 100 / 98 40% 1 26.07.2027 -
Ilyas Ansah Hull City Aktif 140 / 137 40% 1 26.07.2027 -
Josh Coburn Millwall Aktif 120 / 120 40% 1 26.07.2027 -
Malik Mothersille Stockport County Aktif 116 / 123 40% 1 12.07.2027 -
Karl Etta Eyong Levante Aktif 148 / 145 40% 1 12.07.2027 -
Pau Víctor Braga Aktif 141 / 136 40% 1 08.06.2027 -
Alemão Rayo Vallecano Aktif 137 / 129 40% 1 08.06.2027 Daha Fazla Bilgi
Josh King Charlton Athletic Aktif 140 / 148 40% 2 01.06.2027 -
Mao Hosoya Anderlecht Görüşülüyor 134 / 135 67% 1 01.06.2027 -
Raúl Rangel Manchester United Görüşülüyor 132 / 132 66% 1 01.06.2027 -
Harrison Armstrong Hull City Görüşülüyor 125 / 133 40% 1 01.06.2027 -
Tommaso Cecotti Carpi Aktif 92 / 101 40% 1 01.06.2027 -
Iliman N'Diaye Derby County Aktif 164 / 157 40% 3 31.05.2027 -
Hugo Ekitiké Liverpool Aktif 164 / 161 40% 1 31.05.2027 -
Troy Parrott Betis Aktif 139 / 143 40% 1 31.05.2027 -
José Ángel Carmona Sevilla Aktif 145 / 144 40% 5 27.05.2027 -
Johnny Cardoso Atlético Madrid Aktif 156 / 156 40% 9 27.05.2027 -
Tino Livramento Newcastle United Aktif 153 / 161 40% 4 27.05.2027 -
Ryan Gravenberch Liverpool Aktif 159 / 161 40% 7 26.05.2027 -
Eric García Barcelona Aktif 157 / 162 40% 3 26.05.2027 -
Éderson Atalanta Aktif 156 / 159 40% 2 25.05.2027 -
Natan Betis Aktif 151 / 145 40% 1 25.05.2027 -
Pedro Porro Tottenham Aktif 154 / 144 40% 13 23.05.2027 -
Khéphren Thuram Juventus Aktif 158 / 157 40% 4 23.05.2027 -
Juanlu Bournemouth Aktif 149 / 146 40% 6 23.05.2027 -
Oihan Sancet Athletic Bilbao Aktif 158 / 156 40% 3 23.05.2027 -
Pape Diong Westerlo Aktif 115 / 121 40% 1 23.05.2027 -
Jorrel Hato Chelsea Aktif 146 / 150 40% 1 23.05.2027 -
Kang-In Lee Atlético Madrid Aktif 155 / 155 40% 5 20.05.2027 İzle
Fermín Barcelona Aktif 159 / 157 40% 2 20.05.2027 -
Mikel Jauregizar Athletic Bilbao Aktif 154 / 155 40% 1 20.05.2027 -
Matthijs de Ligt Manchester United Aktif 157 / 158 40% 6 18.05.2027 -
Yehor Yarmoliuk Brentford Aktif 149 / 150 40% 2 18.05.2027 -
Boubacar Kamara Aston Villa Aktif 164 / 162 40% 6 17.05.2027 -
Fran García Betis Aktif 155 / 143 40% 4 17.05.2027 -
Maxence Lacroix Chelsea Aktif 153 / 149 40% 1 17.05.2027 -
Moisés Caicedo Chelsea Aktif 171 / 168 40% 9 16.05.2027 -
Joško Gvardiol Manchester City Aktif 170 / 161 40% 5 16.05.2027 -
Gavi Barcelona Aktif 154 / 162 40% 7 16.05.2027 -
Pablo Barrios Atlético Madrid Aktif 159 / 165 40% 7 15.05.2027 -
Amadou Onana Aston Villa Aktif 153 / 158 40% 11 14.05.2027 -
Marc Guéhi Manchester City Aktif 170 / 167 40% 3 14.05.2027 -
Caleb Yirenkyi Coventry City Aktif 135 / 136 40% 1 14.05.2027 -
Alex Scott Bournemouth Aktif 151 / 154 40% 5 13.05.2027 -
William Saliba Arsenal Aktif 177 / 180 40% 8 13.05.2027 -
Adam Wharton Crystal Palace Aktif 155 / 150 40% 4 13.05.2027 -
Manu Koné AS Roma Aktif 167 / 165 40% 7 11.05.2027 -
Levi Colwill Chelsea Aktif 159 / 160 40% 7 07.05.2027 -
Flavien-Enzo Boyomo Osasuna Aktif 145 / 149 40% 3 06.05.2027 -
Quinten Timber Crystal Palace Aktif 150 / 152 40% 2 06.05.2027 -
Aitor Paredes Athletic Bilbao Aktif 154 / 147 40% 8 05.05.2027 -
Sandro Tonali Tottenham Aktif 171 / 171 40% 5 04.05.2027 -
Ilaix Moriba Celta Aktif 152 / 155 40% 1 04.05.2027 Daha Fazla Bilgi
Pedri Barcelona Aktif 174 / 180 40% 14 03.05.2027 -
Javi Rodríguez Celta Aktif 152 / 145 40% 3 03.05.2027 -
Morgan Gibbs-White Nottingham Forest Aktif 154 / 154 40% 3 29.04.2027 -
Jeremie Frimpong Liverpool Aktif 165 / 160 40% 1 29.04.2027 -
Gabriel Martinelli Arsenal Aktif 164 / 165 40% 1 29.04.2027 -
Bryan Gil Alavés Aktif 149 / 146 40% 1 28.04.2027 -
Óscar Mingueza Crystal Palace Aktif 152 / 151 40% 5 27.04.2027 -
Juan Giménez Rayo Vallecano Aktif 119 / 119 40% 2 27.04.2027 -
Lennon Miller AC Milan Aktif 128 / 134 40% 2 27.04.2027 -
Joel McGregor Swindon Town Aktif 92 / 102 40% 1 27.04.2027 -
Yussif Saidu Zaragoza Aktif 121 / 122 40% 1 26.04.2027 -
João Teixeira Porto Aktif 103 / 118 40% 1 26.04.2027 -
Wesley Fofana Chelsea Aktif 165 / 161 40% 5 23.04.2027 -
Willian Pacho Paris Saint-Germain Aktif 161 / 161 40% 4 21.04.2027 -
Kevin Fulham Aktif 149 / 144 40% 1 21.04.2027 -
Malo Gusto Olympique de Marseille Aktif 149 / 153 40% 1 17.04.2027 -
Mario Gila AC Milan Aktif 158 / 152 40% 7 16.04.2027 -
James Garner Everton Aktif 152 / 152 40% 2 15.04.2027 -
Vitinha Paris Saint-Germain Aktif 184 / 182 40% 6 14.04.2027 -
Dani Vivian Betis Aktif 150 / 152 40% 4 14.04.2027 -
Luc François Tours Aktif 160 / 154 40% 4 12.04.2027 -
Giacomo Raspadori Atalanta Aktif 145 / 147 40% 1 08.04.2027 -
Mattéo Guendouzi Monaco Aktif 148 / 149 40% 2 02.04.2027 -
Xavi Simons Tottenham Aktif 159 / 157 40% 2 01.04.2027 -
Georginio Rutter Olympique Lyonnais Aktif 153 / 151 40% 2 01.04.2027 -
Takefusa Kubo Real Sociedad Aktif 156 / 160 40% 1 01.04.2027 -
Kevin Schade Brentford Aktif 154 / 153 40% 1 31.03.2027 -
Alex Amaral Porto Aktif 157 / 157 40% 2 29.03.2027 -
Lucas Høgsberg RC Strasbourg Aktif 135 / 144 40% 2 29.03.2027 -
Gonçalo Oliveira Benfica Aktif 113 / 110 40% 1 29.03.2027 -
Callum Hudson-Odoi Nottingham Forest Aktif 157 / 153 40% 2 28.03.2027 -
Kai Havertz Arsenal Aktif 162 / 163 40% 2 28.03.2027 -
Noni Madueke Arsenal Aktif 160 / 159 40% 2 25.03.2027 -
João Pedro Chelsea Aktif 158 / 153 40% 1 25.03.2027 -
Omar El Hilali Espanyol Aktif 148 / 143 40% 2 21.03.2027 -
Ronwen Vilakazi Ajax Cape Town Aktif 83 / 89 40% 1 12.03.2027 -
Micky van de Ven Tottenham Aktif 156 / 158 40% 1 12.03.2027 -
Yeremy Pino Crystal Palace Aktif 152 / 154 40% 2 07.03.2027 -
Matheus Cunha Manchester United Aktif 156 / 159 40% 1 07.03.2027 -
Ferran Torres Paris Saint-Germain Aktif 163 / 166 40% 1 07.03.2027 -
Borja Sainz Porto Aktif 151 / 148 40% 1 03.03.2027 -
Yankuba Minteh Brighton Aktif 150 / 156 40% 1 13.02.2027 -
Conor Gallagher Tottenham Aktif 152 / 146 40% 1 11.02.2027 -
Mateo Joseph Leeds United Aktif 142 / 145 52% 1 / 1m 10.02.2027 -
Bradley Barcola Liverpool Aktif 164 / 157 40% 1 09.02.2027 -
Cristhian Mosquera Arsenal Aktif 146 / 151 40% 1 03.02.2027 -
Jalen Blesa Rio Ave Aktif 120 / 118 40% 1 25.01.2027 -
Carles Aleñá Alavés Aktif 134 / 136 79% 1 18.01.2027 Onayla
Lukáš Horníček Liverpool Aktif 138 / 144 40% 1 14.01.2027 -
Matvey Safonov Paris Saint-Germain Aktif 151 / 158 40% 3 13.01.2027 -
Giorgi Mamardashvili Manchester City Aktif 163 / 163 40% 1 11.01.2027 -
Roberto Fernández Braga Aktif 138 / 138 40% 1 31.12.2026 -
Fran Navarro Braga Aktif 132 / 131 40% 1 31.12.2026 -
Gorka Gorosabel Real Sociedad Aktif 102 / 119 67% 5 28.12.2026 İzle
Tristan Degreef Anderlecht Aktif 126 / 130 40% 1 27.12.2026 -
Désiré Doué Paris Saint-Germain Aktif 159 / 162 40% 2 25.12.2026 -
Matheus Gonçalves Al-Ahli Aktif 129 / 124 40% 4 24.12.2026 -
Aurélien Tchouaméni Real Madrid Aktif 164 / 169 40% 2 23.12.2026 -
Luca Zidane Leganés Aktif 141 / 141 42% 1 / 1m 23.12.2026 -
Peio Canales Athletic Bilbao Aktif 136 / 139 40% 1 23.12.2026 -
Emmanuel Brunet Tours Aktif 106 / 115 40% 3 21.12.2026 -
Luka Kolar NK Domzale Aktif 99 / 110 40% 1 21.12.2026 -
Luka Lijeskić Radnicki 1923 Aktif 109 / 111 40% 1 21.12.2026 -
Gonçalo Sousa Porto Aktif 108 / 120 40% 1 18.12.2026 -
Joan García Barcelona Aktif 165 / 161 40% 1 18.12.2026 -
Diego Gaitán Maipú Aktif 107 / 110 40% 4 16.12.2026 -
Lautaro Millán Independiente Aktif 122 / 124 40% 5 14.12.2026 -
Ollie Scarles West Ham United Aktif 134 / 132 40% 3 14.12.2026 -
Bobby Clark Derby County Aktif 119 / 132 40% 2 13.12.2026 -
Matías Fernández-Pardo Newcastle United Aktif 140 / 146 40% 7 11.12.2026 -
Samuel Lucero Defensa y Justicia Aktif 115 / 120 40% 5 11.12.2026 -
Chemsdine Talbi Sunderland Aktif 144 / 146 40% 7 11.12.2026 -
Ignacio Perruzzi San Lorenzo Aktif 119 / 124 40% 10 04.12.2026 -
Noah Sadiki Sunderland Aktif 146 / 143 40% 1 30.11.2026 -
Octavio Ontivero Lanús Aktif 108 / 114 40% 2 25.11.2026 -
Jakub Jokl MSK Zilina Aktif 89 / 94 40% 1 22.11.2026 -
Andrew Rick Philadelphia Union Aktif 101 / 106 40% 1 22.11.2026 -
Juan Cruz Meza River Plate Aktif 103 / 104 40% 2 20.11.2026 -
Patrick Preciado Deportivo Pasto Aktif 107 / 108 40% 5 19.11.2026 -
Gabriel Dufour Chamois Niortais Aktif 114 / 120 40% 3 18.11.2026 -
Mamadou Diakhon Club Brugge Aktif 119 / 126 40% 1 17.11.2026 -
Javier Mena Aguilas Doradas Aktif 112 / 119 40% 4 16.11.2026 -
Tomás Abdelnur Santos Laguna Aktif 98 / 97 40% 1 15.11.2026 -
Guilherme Pires Sporting CP Aktif 86 / 92 40% 1 15.11.2026 -
Pierce Charles Manchester City Aktif 124 / 120 40% 1 15.11.2026 -
Mateo Pérez Curci Independiente Aktif 110 / 123 40% 4 13.11.2026 -
Santino Barbi Talleres Aktif 114 / 121 40% 3 13.11.2026 -
Alex Kouto Horio Pisano Nagoya Grampus Aktif 122 / 127 40% 1 13.11.2026 -
Dylan Peraić-Cullen Central Coast Mariners Aktif 99 / 103 40% 2 12.11.2026 -
Wilson Odobert Brighton Aktif 137 / 145 40% 2 12.11.2026 -
Martín D'Aurizio Huracán Aktif 89 / 100 40% 1 12.11.2026 -
Gianluigi Donnarumma Inter Aktif 173 / 170 40% 1 10.11.2026 -
Nazareno Kihm Ferro Carril Oeste Aktif 109 / 118 40% 3 06.11.2026 -
Othmane Maamma Watford Aktif 117 / 130 40% 3 05.11.2026 -
Edoardo Motta Lazio Aktif 121 / 126 40% 2 04.11.2026 -
Elis Bishesari IFK Goteborg Aktif 112 / 124 40% 1 04.11.2026 -
Deniz Ertaş Konyaspor Aktif 126 / 120 40% 4 28.10.2026 -
Íker Blanco Independiente Medellin Aktif 90 / 92 40% 1 28.10.2026 -
Santiago Grella Unión de Santa Fe Aktif 107 / 109 40% 4 27.10.2026 -
Ignacio Ovando Rosario Central Aktif 107 / 113 40% 3 24.10.2026 -
Guillaume Restes Toulouse FC Aktif 130 / 134 40% 3 21.10.2026 -
Galo Galarza Estudiantes Aktif 97 / 104 40% 1 18.10.2026 -
Agustín Ladstatter San Lorenzo Aktif 108 / 114 40% 2 13.10.2026 -
Matthieu Epolo Monaco Aktif 118 / 123 40% 1 09.10.2026 -
Luca Babino Huracán Aktif 110 / 114 40% 2 06.10.2026 -
Manuel Palacios Cortulua Aktif 104 / 111 40% 1 05.10.2026 -
Luka Romero Cruz Azul Aktif 115 / 118 40% 3 03.10.2026 -
Jerónimo Russo Newell's Old Boys Aktif 98 / 105 40% 1 02.10.2026 -
Ramiro Hernandes Cagliari Aktif 114 / 123 40% 2 01.10.2026 -
Alan Forneris Racing Club Aktif 117 / 119 40% 1 01.10.2026 -
Jakub Badžgoň MSK Zilina Aktif 99 / 103 40% 1 25.09.2026 -
Lucas Richarte Temperley Aktif 102 / 109 40% 1 19.09.2026 -
Iván Fresneda Sporting CP Aktif 139 / 146 40% 1 18.09.2026 -
Víctor Moreno Cultural Leonesa Aktif 128 / 133 52% 1 / 1m 16.09.2026 -
Lautaro Mora Huracán Aktif 102 / 116 40% 1 16.09.2026 -
Juan Pablo Arango Talleres Aktif 94 / 98 40% 1 15.09.2026 -
Dylan Gorosito Boca Juniors Aktif 110 / 121 40% 1 14.09.2026 -
Manuel Tucker Platense Aktif 113 / 120 40% 2 13.09.2026 -
Matías Rosales Sarmiento Aktif 100 / 114 40% 1 09.09.2026 -
Lautaro Cueli San Lorenzo Aktif 93 / 98 40% 1 09.09.2026 -
Lucas Agazzi Defensor Sporting Aktif 121 / 123 40% 1 01.09.2026 -
Facundo Montiel Colegiales Aktif 97 / 108 40% 1 24.08.2026 -
Alex Juárez Barracas Central Aktif 102 / 109 40% 1 20.08.2026 -
Mateo Aguiar Defensa y Justicia Aktif 107 / 115 40% 1 19.08.2026 -
Luciano Barros Ayala Independiente Aktif 96 / 99 40% 1 19.08.2026 -
Christantus Uche Getafe Aktif 134 / 135 79% 1 17.08.2026 Onayla
Emiliano Rigoni Belgrano Aktif 128 / 122 40% 1 01.08.2026 -